sensor_id;sensor_type;location;lat;lon;timestamp;P1;durP1;ratioP1;P2;durP2;ratioP2
9739;SDS011;4909;42.680;26.324;2022-07-23T00:00:17;2.87;;;1.50;;
9739;SDS011;4909;42.680;26.324;2022-07-23T00:02:45;3.87;;;1.90;;
9739;SDS011;4909;42.680;26.324;2022-07-23T00:05:12;6.80;;;2.40;;
9739;SDS011;4909;42.680;26.324;2022-07-23T00:07:39;4.57;;;1.93;;
9739;SDS011;4909;42.680;26.324;2022-07-23T00:10:07;4.33;;;1.83;;
9739;SDS011;4909;42.680;26.324;2022-07-23T00:12:34;3.40;;;1.57;;
9739;SDS011;4909;42.680;26.324;2022-07-23T00:15:01;4.07;;;1.77;;
9739;SDS011;4909;42.680;26.324;2022-07-23T00:17:29;3.53;;;1.57;;
9739;SDS011;4909;42.680;26.324;2022-07-23T00:19:57;2.87;;;1.50;;
9739;SDS011;4909;42.680;26.324;2022-07-23T00:22:25;2.40;;;1.33;;
9739;SDS011;4909;42.680;26.324;2022-07-23T00:24:52;4.00;;;1.70;;
9739;SDS011;4909;42.680;26.324;2022-07-23T00:27:19;3.67;;;1.63;;
9739;SDS011;4909;42.680;26.324;2022-07-23T00:29:46;3.20;;;1.63;;
9739;SDS011;4909;42.680;26.324;2022-07-23T00:32:13;4.17;;;1.83;;
9739;SDS011;4909;42.680;26.324;2022-07-23T00:34:40;3.73;;;1.73;;
9739;SDS011;4909;42.680;26.324;2022-07-23T00:37:08;4.00;;;1.63;;
9739;SDS011;4909;42.680;26.324;2022-07-23T00:39:35;4.13;;;1.83;;
9739;SDS011;4909;42.680;26.324;2022-07-23T00:42:02;3.77;;;1.73;;
9739;SDS011;4909;42.680;26.324;2022-07-23T00:44:29;2.53;;;1.40;;
9739;SDS011;4909;42.680;26.324;2022-07-23T00:46:56;2.73;;;1.33;;
9739;SDS011;4909;42.680;26.324;2022-07-23T00:49:25;2.90;;;1.47;;
9739;SDS011;4909;42.680;26.324;2022-07-23T00:51:53;3.20;;;1.57;;
9739;SDS011;4909;42.680;26.324;2022-07-23T00:54:23;4.10;;;1.67;;
9739;SDS011;4909;42.680;26.324;2022-07-23T00:56:53;3.70;;;1.57;;
9739;SDS011;4909;42.680;26.324;2022-07-23T00:59:20;4.93;;;2.07;;
9739;SDS011;4909;42.680;26.324;2022-07-23T01:01:47;3.90;;;1.67;;
9739;SDS011;4909;42.680;26.324;2022-07-23T01:04:15;4.63;;;1.80;;
9739;SDS011;4909;42.680;26.324;2022-07-23T01:06:42;3.87;;;1.77;;
9739;SDS011;4909;42.680;26.324;2022-07-23T01:09:10;6.43;;;2.27;;
9739;SDS011;4909;42.680;26.324;2022-07-23T01:11:38;4.20;;;1.70;;
9739;SDS011;4909;42.680;26.324;2022-07-23T01:14:07;3.03;;;1.43;;
9739;SDS011;4909;42.680;26.324;2022-07-23T01:16:35;2.40;;;1.33;;
9739;SDS011;4909;42.680;26.324;2022-07-23T01:19:02;3.23;;;1.63;;
9739;SDS011;4909;42.680;26.324;2022-07-23T01:21:32;2.97;;;1.43;;
9739;SDS011;4909;42.680;26.324;2022-07-23T01:24:03;3.53;;;1.57;;
9739;SDS011;4909;42.680;26.324;2022-07-23T01:26:30;2.63;;;1.20;;
9739;SDS011;4909;42.680;26.324;2022-07-23T01:28:57;4.67;;;1.73;;
9739;SDS011;4909;42.680;26.324;2022-07-23T01:31:24;4.17;;;1.57;;
9739;SDS011;4909;42.680;26.324;2022-07-23T01:33:52;3.43;;;1.43;;
9739;SDS011;4909;42.680;26.324;2022-07-23T01:36:19;1.60;;;1.03;;
9739;SDS011;4909;42.680;26.324;2022-07-23T01:38:46;4.90;;;1.90;;
9739;SDS011;4909;42.680;26.324;2022-07-23T01:41:14;4.80;;;1.93;;
9739;SDS011;4909;42.680;26.324;2022-07-23T01:43:42;3.60;;;1.60;;
9739;SDS011;4909;42.680;26.324;2022-07-23T01:46:09;4.77;;;1.90;;
9739;SDS011;4909;42.680;26.324;2022-07-23T01:48:36;2.63;;;1.40;;
9739;SDS011;4909;42.680;26.324;2022-07-23T01:51:02;3.17;;;1.40;;
9739;SDS011;4909;42.680;26.324;2022-07-23T01:53:30;3.33;;;1.47;;
9739;SDS011;4909;42.680;26.324;2022-07-23T01:55:57;3.10;;;1.43;;
9739;SDS011;4909;42.680;26.324;2022-07-23T01:58:25;1.90;;;1.03;;
9739;SDS011;4909;42.680;26.324;2022-07-23T02:00:53;4.37;;;1.67;;
9739;SDS011;4909;42.680;26.324;2022-07-23T02:03:20;4.87;;;1.77;;
9739;SDS011;4909;42.680;26.324;2022-07-23T02:05:48;3.27;;;1.50;;
9739;SDS011;4909;42.680;26.324;2022-07-23T02:08:15;4.73;;;1.90;;
9739;SDS011;4909;42.680;26.324;2022-07-23T02:10:42;4.13;;;1.70;;
9739;SDS011;4909;42.680;26.324;2022-07-23T02:13:10;3.40;;;1.57;;
9739;SDS011;4909;42.680;26.324;2022-07-23T02:15:39;3.77;;;1.63;;
9739;SDS011;4909;42.680;26.324;2022-07-23T02:18:06;4.13;;;1.50;;
9739;SDS011;4909;42.680;26.324;2022-07-23T02:20:33;2.50;;;1.37;;
9739;SDS011;4909;42.680;26.324;2022-07-23T02:23:03;4.27;;;1.67;;
9739;SDS011;4909;42.680;26.324;2022-07-23T02:25:30;2.13;;;1.10;;
9739;SDS011;4909;42.680;26.324;2022-07-23T02:27:57;4.43;;;1.93;;
9739;SDS011;4909;42.680;26.324;2022-07-23T02:30:24;3.17;;;1.40;;
9739;SDS011;4909;42.680;26.324;2022-07-23T02:32:52;2.77;;;1.30;;
9739;SDS011;4909;42.680;26.324;2022-07-23T02:35:19;2.43;;;1.27;;
9739;SDS011;4909;42.680;26.324;2022-07-23T02:37:46;4.50;;;1.83;;
9739;SDS011;4909;42.680;26.324;2022-07-23T02:40:13;3.73;;;1.60;;
9739;SDS011;4909;42.680;26.324;2022-07-23T02:42:40;3.17;;;1.47;;
9739;SDS011;4909;42.680;26.324;2022-07-23T02:45:07;2.07;;;1.13;;
9739;SDS011;4909;42.680;26.324;2022-07-23T02:47:35;3.40;;;1.40;;
9739;SDS011;4909;42.680;26.324;2022-07-23T02:50:03;4.40;;;1.67;;
9739;SDS011;4909;42.680;26.324;2022-07-23T02:52:32;3.47;;;1.43;;
9739;SDS011;4909;42.680;26.324;2022-07-23T02:54:59;3.03;;;1.50;;
9739;SDS011;4909;42.680;26.324;2022-07-23T02:57:25;2.67;;;1.33;;
9739;SDS011;4909;42.680;26.324;2022-07-23T02:59:52;2.97;;;1.37;;
9739;SDS011;4909;42.680;26.324;2022-07-23T03:02:19;2.70;;;1.23;;
9739;SDS011;4909;42.680;26.324;2022-07-23T03:04:46;3.60;;;1.47;;
9739;SDS011;4909;42.680;26.324;2022-07-23T03:07:15;3.93;;;1.73;;
9739;SDS011;4909;42.680;26.324;2022-07-23T03:09:42;3.50;;;1.50;;
9739;SDS011;4909;42.680;26.324;2022-07-23T03:12:09;3.07;;;1.37;;
9739;SDS011;4909;42.680;26.324;2022-07-23T03:14:36;3.93;;;1.63;;
9739;SDS011;4909;42.680;26.324;2022-07-23T03:17:03;4.00;;;1.67;;
9739;SDS011;4909;42.680;26.324;2022-07-23T03:19:29;3.00;;;1.47;;
9739;SDS011;4909;42.680;26.324;2022-07-23T03:21:56;3.70;;;1.50;;
9739;SDS011;4909;42.680;26.324;2022-07-23T03:24:25;2.77;;;1.27;;
9739;SDS011;4909;42.680;26.324;2022-07-23T03:27:12;3.77;;;1.47;;
9739;SDS011;4909;42.680;26.324;2022-07-23T03:29:39;2.37;;;1.23;;
9739;SDS011;4909;42.680;26.324;2022-07-23T03:32:06;2.40;;;1.23;;
9739;SDS011;4909;42.680;26.324;2022-07-23T03:34:33;3.83;;;1.60;;
9739;SDS011;4909;42.680;26.324;2022-07-23T03:37:00;5.53;;;2.10;;
9739;SDS011;4909;42.680;26.324;2022-07-23T03:39:28;1.97;;;1.13;;
9739;SDS011;4909;42.680;26.324;2022-07-23T03:41:56;3.07;;;1.40;;
9739;SDS011;4909;42.680;26.324;2022-07-23T03:44:22;2.33;;;1.33;;
9739;SDS011;4909;42.680;26.324;2022-07-23T03:46:49;2.47;;;1.27;;
9739;SDS011;4909;42.680;26.324;2022-07-23T03:49:16;2.43;;;1.27;;
9739;SDS011;4909;42.680;26.324;2022-07-23T03:51:43;3.83;;;1.70;;
9739;SDS011;4909;42.680;26.324;2022-07-23T03:54:10;3.37;;;1.53;;
9739;SDS011;4909;42.680;26.324;2022-07-23T03:56:38;2.57;;;1.43;;
9739;SDS011;4909;42.680;26.324;2022-07-23T03:59:05;5.20;;;2.17;;
9739;SDS011;4909;42.680;26.324;2022-07-23T04:01:32;3.57;;;1.53;;
9739;SDS011;4909;42.680;26.324;2022-07-23T04:03:59;3.20;;;1.50;;
9739;SDS011;4909;42.680;26.324;2022-07-23T04:06:26;3.93;;;1.63;;
9739;SDS011;4909;42.680;26.324;2022-07-23T04:08:53;3.60;;;1.70;;
9739;SDS011;4909;42.680;26.324;2022-07-23T04:11:20;2.47;;;1.30;;
9739;SDS011;4909;42.680;26.324;2022-07-23T04:13:48;3.60;;;1.67;;
9739;SDS011;4909;42.680;26.324;2022-07-23T04:16:15;3.70;;;1.63;;
9739;SDS011;4909;42.680;26.324;2022-07-23T04:18:42;3.70;;;1.67;;
9739;SDS011;4909;42.680;26.324;2022-07-23T04:21:09;3.13;;;1.50;;
9739;SDS011;4909;42.680;26.324;2022-07-23T04:23:36;4.07;;;1.77;;
9739;SDS011;4909;42.680;26.324;2022-07-23T04:26:02;4.50;;;1.90;;
9739;SDS011;4909;42.680;26.324;2022-07-23T04:28:29;2.53;;;1.50;;
9739;SDS011;4909;42.680;26.324;2022-07-23T04:30:58;4.47;;;2.07;;
9739;SDS011;4909;42.680;26.324;2022-07-23T04:33:25;1.97;;;1.27;;
9739;SDS011;4909;42.680;26.324;2022-07-23T04:35:52;2.73;;;1.50;;
9739;SDS011;4909;42.680;26.324;2022-07-23T04:38:19;3.00;;;1.57;;
9739;SDS011;4909;42.680;26.324;2022-07-23T04:40:46;3.83;;;1.77;;
9739;SDS011;4909;42.680;26.324;2022-07-23T04:43:13;4.57;;;2.00;;
9739;SDS011;4909;42.680;26.324;2022-07-23T04:45:40;2.10;;;1.30;;
9739;SDS011;4909;42.680;26.324;2022-07-23T04:48:08;2.90;;;1.43;;
9739;SDS011;4909;42.680;26.324;2022-07-23T04:50:35;3.00;;;1.60;;
9739;SDS011;4909;42.680;26.324;2022-07-23T04:53:04;2.90;;;1.53;;
9739;SDS011;4909;42.680;26.324;2022-07-23T04:55:31;2.73;;;1.70;;
9739;SDS011;4909;42.680;26.324;2022-07-23T04:57:58;3.03;;;1.63;;
9739;SDS011;4909;42.680;26.324;2022-07-23T05:00:25;4.00;;;1.93;;
9739;SDS011;4909;42.680;26.324;2022-07-23T05:02:52;3.63;;;1.90;;
9739;SDS011;4909;42.680;26.324;2022-07-23T05:05:20;3.13;;;1.70;;
9739;SDS011;4909;42.680;26.324;2022-07-23T05:07:47;3.53;;;1.80;;
9739;SDS011;4909;42.680;26.324;2022-07-23T05:10:14;2.43;;;1.47;;
9739;SDS011;4909;42.680;26.324;2022-07-23T05:12:41;2.33;;;1.53;;
9739;SDS011;4909;42.680;26.324;2022-07-23T05:15:08;1.70;;;1.40;;
9739;SDS011;4909;42.680;26.324;2022-07-23T05:17:35;3.40;;;1.90;;
9739;SDS011;4909;42.680;26.324;2022-07-23T05:20:01;1.80;;;1.50;;
9739;SDS011;4909;42.680;26.324;2022-07-23T05:22:30;4.90;;;2.30;;
9739;SDS011;4909;42.680;26.324;2022-07-23T05:24:58;4.83;;;2.47;;
9739;SDS011;4909;42.680;26.324;2022-07-23T05:27:25;2.27;;;1.67;;
9739;SDS011;4909;42.680;26.324;2022-07-23T05:29:51;2.93;;;1.90;;
9739;SDS011;4909;42.680;26.324;2022-07-23T05:32:18;2.63;;;1.80;;
9739;SDS011;4909;42.680;26.324;2022-07-23T05:34:45;4.10;;;2.30;;
9739;SDS011;4909;42.680;26.324;2022-07-23T05:37:12;2.77;;;2.03;;
9739;SDS011;4909;42.680;26.324;2022-07-23T05:39:40;3.80;;;2.10;;
9739;SDS011;4909;42.680;26.324;2022-07-23T05:42:07;4.50;;;2.47;;
9739;SDS011;4909;42.680;26.324;2022-07-23T05:44:34;4.33;;;2.20;;
9739;SDS011;4909;42.680;26.324;2022-07-23T05:47:01;3.10;;;2.00;;
9739;SDS011;4909;42.680;26.324;2022-07-23T05:49:28;3.40;;;2.13;;
9739;SDS011;4909;42.680;26.324;2022-07-23T05:51:55;4.00;;;2.43;;
9739;SDS011;4909;42.680;26.324;2022-07-23T05:54:21;3.07;;;2.23;;
9739;SDS011;4909;42.680;26.324;2022-07-23T05:56:50;7.67;;;3.13;;
9739;SDS011;4909;42.680;26.324;2022-07-23T05:59:17;5.23;;;3.00;;
9739;SDS011;4909;42.680;26.324;2022-07-23T06:01:44;2.83;;;1.90;;
9739;SDS011;4909;42.680;26.324;2022-07-23T06:04:11;2.00;;;1.80;;
9739;SDS011;4909;42.680;26.324;2022-07-23T06:06:38;4.13;;;2.40;;
9739;SDS011;4909;42.680;26.324;2022-07-23T06:09:05;3.50;;;2.30;;
9739;SDS011;4909;42.680;26.324;2022-07-23T06:11:32;6.97;;;3.17;;
9739;SDS011;4909;42.680;26.324;2022-07-23T06:14:00;4.70;;;2.83;;
9739;SDS011;4909;42.680;26.324;2022-07-23T06:16:28;5.53;;;2.93;;
9739;SDS011;4909;42.680;26.324;2022-07-23T06:18:54;3.07;;;2.23;;
9739;SDS011;4909;42.680;26.324;2022-07-23T06:21:21;3.23;;;2.37;;
9739;SDS011;4909;42.680;26.324;2022-07-23T06:23:48;4.23;;;2.60;;
9739;SDS011;4909;42.680;26.324;2022-07-23T06:26:15;2.80;;;2.27;;
9739;SDS011;4909;42.680;26.324;2022-07-23T06:28:42;5.63;;;3.07;;
9739;SDS011;4909;42.680;26.324;2022-07-23T06:31:10;5.60;;;3.17;;
9739;SDS011;4909;42.680;26.324;2022-07-23T06:33:37;4.57;;;3.07;;
9739;SDS011;4909;42.680;26.324;2022-07-23T06:36:04;2.90;;;2.70;;
9739;SDS011;4909;42.680;26.324;2022-07-23T06:38:31;7.83;;;3.83;;
9739;SDS011;4909;42.680;26.324;2022-07-23T06:40:58;4.20;;;3.30;;
9739;SDS011;4909;42.680;26.324;2022-07-23T06:43:25;3.93;;;3.17;;
9739;SDS011;4909;42.680;26.324;2022-07-23T06:45:52;3.13;;;2.87;;
9739;SDS011;4909;42.680;26.324;2022-07-23T06:48:20;5.50;;;3.50;;
9739;SDS011;4909;42.680;26.324;2022-07-23T06:50:47;4.60;;;3.60;;
9739;SDS011;4909;42.680;26.324;2022-07-23T06:53:14;5.40;;;4.03;;
9739;SDS011;4909;42.680;26.324;2022-07-23T06:55:41;4.27;;;3.50;;
9739;SDS011;4909;42.680;26.324;2022-07-23T06:58:08;5.00;;;3.83;;
9739;SDS011;4909;42.680;26.324;2022-07-23T07:00:35;4.23;;;3.33;;
9739;SDS011;4909;42.680;26.324;2022-07-23T07:03:21;4.30;;;3.30;;
9739;SDS011;4909;42.680;26.324;2022-07-23T07:05:47;4.37;;;3.93;;
9739;SDS011;4909;42.680;26.324;2022-07-23T07:08:14;4.17;;;3.77;;
9739;SDS011;4909;42.680;26.324;2022-07-23T07:10:41;10.27;;;5.23;;
9739;SDS011;4909;42.680;26.324;2022-07-23T07:13:08;6.50;;;5.07;;
9739;SDS011;4909;42.680;26.324;2022-07-23T07:15:35;8.60;;;5.30;;
9739;SDS011;4909;42.680;26.324;2022-07-23T07:18:02;6.57;;;5.10;;
9739;SDS011;4909;42.680;26.324;2022-07-23T07:20:30;9.00;;;5.80;;
9739;SDS011;4909;42.680;26.324;2022-07-23T07:22:57;5.07;;;4.57;;
9739;SDS011;4909;42.680;26.324;2022-07-23T07:25:24;8.70;;;5.83;;
9739;SDS011;4909;42.680;26.324;2022-07-23T07:27:52;5.63;;;4.87;;
9739;SDS011;4909;42.680;26.324;2022-07-23T07:30:18;4.87;;;4.57;;
9739;SDS011;4909;42.680;26.324;2022-07-23T07:32:45;5.07;;;4.60;;
9739;SDS011;4909;42.680;26.324;2022-07-23T07:35:12;5.50;;;4.97;;
9739;SDS011;4909;42.680;26.324;2022-07-23T07:37:41;5.20;;;4.80;;
9739;SDS011;4909;42.680;26.324;2022-07-23T07:40:08;5.60;;;5.10;;
9739;SDS011;4909;42.680;26.324;2022-07-23T07:42:43;4.97;;;4.57;;
9739;SDS011;4909;42.680;26.324;2022-07-23T07:45:10;6.13;;;5.37;;
9739;SDS011;4909;42.680;26.324;2022-07-23T07:47:37;6.60;;;5.47;;
9739;SDS011;4909;42.680;26.324;2022-07-23T07:50:05;6.60;;;5.60;;
9739;SDS011;4909;42.680;26.324;2022-07-23T07:52:33;6.67;;;6.07;;
9739;SDS011;4909;42.680;26.324;2022-07-23T07:55:03;5.40;;;5.03;;
9739;SDS011;4909;42.680;26.324;2022-07-23T07:57:31;5.20;;;4.77;;
9739;SDS011;4909;42.680;26.324;2022-07-23T07:59:57;5.67;;;5.17;;
9739;SDS011;4909;42.680;26.324;2022-07-23T08:02:24;7.03;;;6.17;;
9739;SDS011;4909;42.680;26.324;2022-07-23T08:04:51;6.07;;;5.57;;
9739;SDS011;4909;42.680;26.324;2022-07-23T08:07:18;6.23;;;5.70;;
9739;SDS011;4909;42.680;26.324;2022-07-23T08:09:45;6.40;;;5.83;;
9739;SDS011;4909;42.680;26.324;2022-07-23T08:12:38;5.97;;;5.43;;
9739;SDS011;4909;42.680;26.324;2022-07-23T08:15:06;9.33;;;7.03;;
9739;SDS011;4909;42.680;26.324;2022-07-23T08:17:34;8.23;;;7.30;;
9739;SDS011;4909;42.680;26.324;2022-07-23T08:20:01;8.40;;;7.03;;
9739;SDS011;4909;42.680;26.324;2022-07-23T08:22:41;8.00;;;7.27;;
9739;SDS011;4909;42.680;26.324;2022-07-23T08:25:09;7.13;;;6.40;;
9739;SDS011;4909;42.680;26.324;2022-07-23T08:27:37;7.83;;;7.27;;
9739;SDS011;4909;42.680;26.324;2022-07-23T08:30:04;7.70;;;7.10;;
9739;SDS011;4909;42.680;26.324;2022-07-23T08:32:32;8.53;;;7.70;;
9739;SDS011;4909;42.680;26.324;2022-07-23T08:34:59;8.18;;;7.53;;
9739;SDS011;4909;42.680;26.324;2022-07-23T08:37:26;8.47;;;7.87;;
9739;SDS011;4909;42.680;26.324;2022-07-23T08:39:53;9.80;;;8.55;;
9739;SDS011;4909;42.680;26.324;2022-07-23T08:42:21;7.63;;;7.00;;
9739;SDS011;4909;42.680;26.324;2022-07-23T08:44:49;7.38;;;6.88;;
9739;SDS011;4909;42.680;26.324;2022-07-23T08:47:16;9.25;;;8.55;;
9739;SDS011;4909;42.680;26.324;2022-07-23T08:49:43;11.00;;;9.05;;
9739;SDS011;4909;42.680;26.324;2022-07-23T08:52:12;9.25;;;8.73;;
9739;SDS011;4909;42.680;26.324;2022-07-23T08:54:41;8.82;;;8.32;;
9739;SDS011;4909;42.680;26.324;2022-07-23T08:57:08;9.27;;;8.60;;
9739;SDS011;4909;42.680;26.324;2022-07-23T08:59:34;8.82;;;8.13;;
9739;SDS011;4909;42.680;26.324;2022-07-23T09:02:03;9.25;;;8.85;;
9739;SDS011;4909;42.680;26.324;2022-07-23T09:04:30;9.48;;;8.57;;
9739;SDS011;4909;42.680;26.324;2022-07-23T09:06:57;7.63;;;7.03;;
9739;SDS011;4909;42.680;26.324;2022-07-23T09:09:24;8.70;;;8.00;;
9739;SDS011;4909;42.680;26.324;2022-07-23T09:12:01;7.38;;;7.07;;
9739;SDS011;4909;42.680;26.324;2022-07-23T09:14:36;10.30;;;9.60;;
9739;SDS011;4909;42.680;26.324;2022-07-23T09:17:13;7.65;;;7.25;;
9739;SDS011;4909;42.680;26.324;2022-07-23T09:19:42;10.55;;;9.70;;
9739;SDS011;4909;42.680;26.324;2022-07-23T09:22:16;8.70;;;8.13;;
9739;SDS011;4909;42.680;26.324;2022-07-23T09:27:44;8.73;;;8.13;;
9739;SDS011;4909;42.680;26.324;2022-07-23T09:30:17;9.60;;;8.93;;
9739;SDS011;4909;42.680;26.324;2022-07-23T09:32:49;11.43;;;10.73;;
9739;SDS011;4909;42.680;26.324;2022-07-23T09:35:43;7.78;;;7.38;;
9739;SDS011;4909;42.680;26.324;2022-07-23T09:38:11;10.63;;;9.98;;
9739;SDS011;4909;42.680;26.324;2022-07-23T09:40:38;9.30;;;8.90;;
9739;SDS011;4909;42.680;26.324;2022-07-23T09:43:05;13.68;;;12.50;;
9739;SDS011;4909;42.680;26.324;2022-07-23T09:45:32;8.85;;;8.27;;
9739;SDS011;4909;42.680;26.324;2022-07-23T09:48:11;9.65;;;8.90;;
9739;SDS011;4909;42.680;26.324;2022-07-23T09:50:39;10.10;;;9.27;;
9739;SDS011;4909;42.680;26.324;2022-07-23T09:53:06;10.23;;;9.57;;
9739;SDS011;4909;42.680;26.324;2022-07-23T09:55:34;12.52;;;11.85;;
9739;SDS011;4909;42.680;26.324;2022-07-23T09:58:03;12.80;;;12.02;;
9739;SDS011;4909;42.680;26.324;2022-07-23T10:00:34;13.27;;;12.05;;
9739;SDS011;4909;42.680;26.324;2022-07-23T10:03:02;12.40;;;11.50;;
9739;SDS011;4909;42.680;26.324;2022-07-23T10:05:33;10.63;;;9.93;;
9739;SDS011;4909;42.680;26.324;2022-07-23T10:08:02;10.15;;;9.55;;
9739;SDS011;4909;42.680;26.324;2022-07-23T10:10:29;13.25;;;11.98;;
9739;SDS011;4909;42.680;26.324;2022-07-23T10:12:57;11.05;;;10.35;;
9739;SDS011;4909;42.680;26.324;2022-07-23T10:15:45;10.45;;;9.55;;
9739;SDS011;4909;42.680;26.324;2022-07-23T10:18:13;11.80;;;11.02;;
9739;SDS011;4909;42.680;26.324;2022-07-23T10:20:41;9.23;;;8.63;;
9739;SDS011;4909;42.680;26.324;2022-07-23T10:23:11;9.50;;;8.90;;
9739;SDS011;4909;42.680;26.324;2022-07-23T10:25:46;9.80;;;9.30;;
9739;SDS011;4909;42.680;26.324;2022-07-23T10:31:20;10.50;;;9.85;;
9739;SDS011;4909;42.680;26.324;2022-07-23T10:34:01;10.23;;;9.52;;
9739;SDS011;4909;42.680;26.324;2022-07-23T10:36:40;8.93;;;8.35;;
9739;SDS011;4909;42.680;26.324;2022-07-23T10:39:14;13.40;;;11.93;;
9739;SDS011;4909;42.680;26.324;2022-07-23T10:41:48;10.05;;;9.38;;
9739;SDS011;4909;42.680;26.324;2022-07-23T10:44:16;9.65;;;9.00;;
9739;SDS011;4909;42.680;26.324;2022-07-23T10:46:54;11.73;;;11.07;;
9739;SDS011;4909;42.680;26.324;2022-07-23T10:49:32;10.32;;;9.52;;
9739;SDS011;4909;42.680;26.324;2022-07-23T10:52:16;9.15;;;8.77;;
9739;SDS011;4909;42.680;26.324;2022-07-23T10:54:51;9.70;;;9.18;;
9739;SDS011;4909;42.680;26.324;2022-07-23T10:57:20;12.75;;;11.88;;
9739;SDS011;4909;42.680;26.324;2022-07-23T11:02:47;9.80;;;9.20;;
9739;SDS011;4909;42.680;26.324;2022-07-23T11:05:16;9.30;;;8.70;;
9739;SDS011;4909;42.680;26.324;2022-07-23T11:10:47;9.65;;;8.88;;
9739;SDS011;4909;42.680;26.324;2022-07-23T11:16:19;8.88;;;8.20;;
9739;SDS011;4909;42.680;26.324;2022-07-23T11:19:03;8.82;;;8.18;;
9739;SDS011;4909;42.680;26.324;2022-07-23T11:21:45;10.60;;;9.95;;
9739;SDS011;4909;42.680;26.324;2022-07-23T11:24:15;8.18;;;7.68;;
9739;SDS011;4909;42.680;26.324;2022-07-23T11:26:51;9.82;;;9.07;;
9739;SDS011;4909;42.680;26.324;2022-07-23T11:29:38;9.48;;;8.82;;
9739;SDS011;4909;42.680;26.324;2022-07-23T11:32:07;10.45;;;9.65;;
9739;SDS011;4909;42.680;26.324;2022-07-23T11:34:44;10.88;;;9.95;;
9739;SDS011;4909;42.680;26.324;2022-07-23T11:37:13;10.75;;;9.98;;
9739;SDS011;4909;42.680;26.324;2022-07-23T11:39:55;9.20;;;8.65;;
9739;SDS011;4909;42.680;26.324;2022-07-23T11:42:23;11.07;;;10.18;;
9739;SDS011;4909;42.680;26.324;2022-07-23T11:44:50;9.43;;;8.80;;
9739;SDS011;4909;42.680;26.324;2022-07-23T11:47:21;7.95;;;7.35;;
9739;SDS011;4909;42.680;26.324;2022-07-23T11:49:51;11.50;;;10.32;;
9739;SDS011;4909;42.680;26.324;2022-07-23T11:52:19;11.68;;;10.75;;
9739;SDS011;4909;42.680;26.324;2022-07-23T11:54:50;8.38;;;7.55;;
9739;SDS011;4909;42.680;26.324;2022-07-23T11:57:19;8.55;;;7.97;;
9739;SDS011;4909;42.680;26.324;2022-07-23T11:59:51;8.85;;;8.27;;
9739;SDS011;4909;42.680;26.324;2022-07-23T12:02:21;9.40;;;8.82;;
9739;SDS011;4909;42.680;26.324;2022-07-23T12:04:48;8.18;;;7.55;;
9739;SDS011;4909;42.680;26.324;2022-07-23T12:07:27;7.57;;;7.15;;
9739;SDS011;4909;42.680;26.324;2022-07-23T12:09:55;8.13;;;7.55;;
9739;SDS011;4909;42.680;26.324;2022-07-23T12:12:25;8.85;;;8.20;;
9739;SDS011;4909;42.680;26.324;2022-07-23T12:14:52;9.02;;;8.32;;
9739;SDS011;4909;42.680;26.324;2022-07-23T12:17:22;10.70;;;9.77;;
9739;SDS011;4909;42.680;26.324;2022-07-23T12:19:55;10.10;;;9.30;;
9739;SDS011;4909;42.680;26.324;2022-07-23T12:22:23;8.05;;;7.65;;
9739;SDS011;4909;42.680;26.324;2022-07-23T12:24:54;8.95;;;8.45;;
9739;SDS011;4909;42.680;26.324;2022-07-23T12:27:23;8.88;;;8.48;;
9739;SDS011;4909;42.680;26.324;2022-07-23T12:29:52;8.48;;;7.97;;
9739;SDS011;4909;42.680;26.324;2022-07-23T12:32:20;9.52;;;8.93;;
9739;SDS011;4909;42.680;26.324;2022-07-23T12:34:49;9.10;;;8.50;;
9739;SDS011;4909;42.680;26.324;2022-07-23T12:37:30;10.38;;;9.38;;
9739;SDS011;4909;42.680;26.324;2022-07-23T12:39:58;8.63;;;7.97;;
9739;SDS011;4909;42.680;26.324;2022-07-23T12:42:46;8.00;;;7.45;;
9739;SDS011;4909;42.680;26.324;2022-07-23T12:45:16;6.82;;;6.53;;
9739;SDS011;4909;42.680;26.324;2022-07-23T12:47:52;9.10;;;8.55;;
9739;SDS011;4909;42.680;26.324;2022-07-23T12:50:42;7.75;;;7.35;;
9739;SDS011;4909;42.680;26.324;2022-07-23T12:53:12;9.40;;;8.88;;
9739;SDS011;4909;42.680;26.324;2022-07-23T12:55:43;8.55;;;7.90;;
9739;SDS011;4909;42.680;26.324;2022-07-23T12:58:13;10.43;;;9.57;;
9739;SDS011;4909;42.680;26.324;2022-07-23T13:03:34;9.43;;;8.80;;
9739;SDS011;4909;42.680;26.324;2022-07-23T13:06:05;10.70;;;9.68;;
9739;SDS011;4909;42.680;26.324;2022-07-23T13:08:34;8.25;;;7.65;;
9739;SDS011;4909;42.680;26.324;2022-07-23T13:11:02;9.40;;;8.65;;
9739;SDS011;4909;42.680;26.324;2022-07-23T13:13:32;10.00;;;9.25;;
9739;SDS011;4909;42.680;26.324;2022-07-23T13:16:01;9.32;;;8.57;;
9739;SDS011;4909;42.680;26.324;2022-07-23T13:18:28;10.18;;;9.40;;
9739;SDS011;4909;42.680;26.324;2022-07-23T13:20:56;9.05;;;8.27;;
9739;SDS011;4909;42.680;26.324;2022-07-23T13:23:23;8.20;;;7.50;;
9739;SDS011;4909;42.680;26.324;2022-07-23T13:25:50;9.00;;;8.25;;
9739;SDS011;4909;42.680;26.324;2022-07-23T13:28:18;10.30;;;9.38;;
9739;SDS011;4909;42.680;26.324;2022-07-23T13:30:47;10.10;;;9.48;;
9739;SDS011;4909;42.680;26.324;2022-07-23T13:33:16;9.50;;;8.63;;
9739;SDS011;4909;42.680;26.324;2022-07-23T13:35:43;10.73;;;9.82;;
9739;SDS011;4909;42.680;26.324;2022-07-23T13:38:10;8.65;;;7.97;;
9739;SDS011;4909;42.680;26.324;2022-07-23T13:40:38;8.50;;;7.70;;
9739;SDS011;4909;42.680;26.324;2022-07-23T13:43:07;8.02;;;7.38;;
9739;SDS011;4909;42.680;26.324;2022-07-23T13:45:35;7.57;;;7.07;;
9739;SDS011;4909;42.680;26.324;2022-07-23T13:48:04;8.93;;;8.13;;
9739;SDS011;4909;42.680;26.324;2022-07-23T13:50:32;8.05;;;7.35;;
9739;SDS011;4909;42.680;26.324;2022-07-23T13:53:00;7.15;;;6.65;;
9739;SDS011;4909;42.680;26.324;2022-07-23T13:55:28;8.60;;;7.75;;
9739;SDS011;4909;42.680;26.324;2022-07-23T13:57:55;7.47;;;7.07;;
9739;SDS011;4909;42.680;26.324;2022-07-23T14:00:22;8.07;;;7.47;;
9739;SDS011;4909;42.680;26.324;2022-07-23T14:02:49;11.65;;;9.50;;
9739;SDS011;4909;42.680;26.324;2022-07-23T14:05:17;9.10;;;8.40;;
9739;SDS011;4909;42.680;26.324;2022-07-23T14:07:44;8.52;;;7.82;;
9739;SDS011;4909;42.680;26.324;2022-07-23T14:10:12;8.65;;;7.72;;
9739;SDS011;4909;42.680;26.324;2022-07-23T14:12:39;9.73;;;8.77;;
9739;SDS011;4909;42.680;26.324;2022-07-23T14:15:06;9.00;;;8.50;;
9739;SDS011;4909;42.680;26.324;2022-07-23T14:17:35;10.45;;;9.65;;
9739;SDS011;4909;42.680;26.324;2022-07-23T14:20:03;9.02;;;8.38;;
9739;SDS011;4909;42.680;26.324;2022-07-23T14:22:32;10.98;;;10.05;;
9739;SDS011;4909;42.680;26.324;2022-07-23T14:24:59;9.77;;;9.15;;
9739;SDS011;4909;42.680;26.324;2022-07-23T14:27:26;9.52;;;8.73;;
9739;SDS011;4909;42.680;26.324;2022-07-23T14:29:54;8.25;;;7.53;;
9739;SDS011;4909;42.680;26.324;2022-07-23T14:32:22;9.02;;;8.32;;
9739;SDS011;4909;42.680;26.324;2022-07-23T14:34:50;8.13;;;7.63;;
9739;SDS011;4909;42.680;26.324;2022-07-23T14:37:17;8.65;;;8.05;;
9739;SDS011;4909;42.680;26.324;2022-07-23T14:39:46;8.02;;;7.57;;
9739;SDS011;4909;42.680;26.324;2022-07-23T14:42:14;10.23;;;9.50;;
9739;SDS011;4909;42.680;26.324;2022-07-23T14:44:40;8.10;;;7.38;;
9739;SDS011;4909;42.680;26.324;2022-07-23T14:47:08;9.68;;;8.95;;
9739;SDS011;4909;42.680;26.324;2022-07-23T14:49:35;11.15;;;10.23;;
9739;SDS011;4909;42.680;26.324;2022-07-23T14:52:02;9.70;;;9.10;;
9739;SDS011;4909;42.680;26.324;2022-07-23T14:54:30;10.43;;;9.73;;
9739;SDS011;4909;42.680;26.324;2022-07-23T14:56:59;9.05;;;8.43;;
9739;SDS011;4909;42.680;26.324;2022-07-23T14:59:27;7.97;;;7.47;;
9739;SDS011;4909;42.680;26.324;2022-07-23T15:01:55;8.32;;;7.70;;
9739;SDS011;4909;42.680;26.324;2022-07-23T15:04:22;7.63;;;7.22;;
9739;SDS011;4909;42.680;26.324;2022-07-23T15:06:49;7.93;;;7.43;;
9739;SDS011;4909;42.680;26.324;2022-07-23T15:09:17;10.07;;;9.20;;
9739;SDS011;4909;42.680;26.324;2022-07-23T15:11:44;8.98;;;8.25;;
9739;SDS011;4909;42.680;26.324;2022-07-23T15:14:12;10.18;;;9.27;;
9739;SDS011;4909;42.680;26.324;2022-07-23T15:16:39;9.65;;;8.77;;
9739;SDS011;4909;42.680;26.324;2022-07-23T15:19:06;9.00;;;8.40;;
9739;SDS011;4909;42.680;26.324;2022-07-23T15:21:33;8.90;;;8.30;;
9739;SDS011;4909;42.680;26.324;2022-07-23T15:24:00;9.43;;;8.70;;